createdAt,value
2023-04-10T00:01:51.739Z,99.90
2023-04-10T00:04:18.418Z,99.90
2023-04-10T00:06:45.764Z,99.90
2023-04-10T00:09:11.892Z,99.90
2023-04-10T00:11:38.052Z,99.90
2023-04-10T00:14:04.176Z,99.90
2023-04-10T00:16:30.398Z,99.90
2023-04-10T00:18:56.593Z,99.90
2023-04-10T00:21:22.734Z,99.90
2023-04-10T00:23:48.920Z,99.90
2023-04-10T00:26:15.426Z,99.90
2023-04-10T00:28:41.765Z,99.90
2023-04-10T00:31:08.113Z,99.90
2023-04-10T00:33:34.283Z,99.90
2023-04-10T00:36:00.493Z,99.90
2023-04-10T00:38:27.185Z,99.90
2023-04-10T00:40:53.357Z,99.90
2023-04-10T00:43:19.624Z,99.90
2023-04-10T00:45:45.839Z,99.90
2023-04-10T00:48:12.264Z,99.90
2023-04-10T00:50:38.886Z,99.90
2023-04-10T00:53:05.890Z,99.90
2023-04-10T00:55:32.092Z,99.90
2023-04-10T00:57:58.222Z,99.90
2023-04-10T01:00:24.716Z,99.90
2023-04-10T01:02:51.697Z,99.90
2023-04-10T01:05:18.120Z,99.90
2023-04-10T01:11:35.932Z,99.90
2023-04-10T01:14:32.880Z,99.90
2023-04-10T01:17:06.649Z,99.90
2023-04-10T01:21:04.635Z,99.90
2023-04-10T01:28:54.770Z,99.90
2023-04-10T01:31:29.142Z,99.90
2023-04-10T01:34:01.731Z,99.90
2023-04-10T01:36:31.481Z,99.90
2023-04-10T01:38:58.803Z,99.90
2023-04-10T01:41:25.517Z,99.90
2023-04-10T01:43:52.455Z,99.90
2023-04-10T01:46:19.312Z,99.90
2023-04-10T01:48:49.047Z,99.90
2023-04-10T01:51:15.727Z,99.90
2023-04-10T01:53:43.030Z,99.90
2023-04-10T01:56:09.349Z,99.90
2023-04-10T01:58:36.179Z,99.90
2023-04-10T02:01:02.370Z,99.90
2023-04-10T02:03:28.981Z,99.90
2023-04-10T02:06:25.754Z,99.90
2023-04-10T02:09:03.337Z,99.90
2023-04-10T02:11:43.771Z,99.90
2023-04-10T02:14:11.413Z,99.90
2023-04-10T02:16:38.661Z,99.90
2023-04-10T02:19:04.888Z,99.90
2023-04-10T02:21:34.092Z,99.90
2023-04-10T02:24:00.495Z,99.90
2023-04-10T02:26:26.616Z,99.90
2023-04-10T02:28:53.312Z,99.90
2023-04-10T02:31:19.487Z,99.90
2023-04-10T02:33:45.818Z,99.90
2023-04-10T02:36:12.112Z,99.90
2023-04-10T02:38:38.406Z,99.90
2023-04-10T02:41:06.860Z,99.90
2023-04-10T02:43:33.462Z,99.90
2023-04-10T02:45:59.615Z,99.90
2023-04-10T02:48:25.847Z,99.90
2023-04-10T02:50:59.174Z,99.90
2023-04-10T02:53:25.457Z,99.90
2023-04-10T02:55:53.336Z,99.90
2023-04-10T02:58:20.723Z,99.90
2023-04-10T03:00:50.461Z,99.90
2023-04-10T03:03:19.958Z,99.90
2023-04-10T03:05:48.323Z,99.90
2023-04-10T03:08:15.555Z,99.90
2023-04-10T03:10:44.207Z,99.90
2023-04-10T03:13:10.454Z,99.90
2023-04-10T03:15:37.407Z,99.90
2023-04-10T03:18:06.743Z,99.90
2023-04-10T03:20:33.241Z,99.90
2023-04-10T03:23:00.034Z,99.90
2023-04-10T03:25:26.655Z,99.90
2023-04-10T03:27:52.773Z,99.90
2023-04-10T03:30:19.183Z,99.90
2023-04-10T03:32:45.530Z,99.90
2023-04-10T03:35:11.703Z,99.90
2023-04-10T03:37:38.448Z,99.90
2023-04-10T03:40:07.170Z,99.90
2023-04-10T03:42:33.354Z,99.90
2023-04-10T03:45:02.080Z,99.90
2023-04-10T03:47:28.240Z,99.90
2023-04-10T03:49:54.534Z,99.90
2023-04-10T03:52:20.704Z,99.90
2023-04-10T03:54:47.095Z,99.90
2023-04-10T03:57:13.206Z,99.90
2023-04-10T03:59:39.548Z,99.90
2023-04-10T04:02:07.842Z,99.90
2023-04-10T04:04:34.272Z,99.90
2023-04-10T04:07:00.523Z,99.90
2023-04-10T04:09:26.701Z,99.90
2023-04-10T04:11:52.847Z,99.90
2023-04-10T04:14:19.011Z,99.90
2023-04-10T04:16:45.465Z,99.90
2023-04-10T04:19:11.975Z,99.90
2023-04-10T04:21:38.171Z,99.90
2023-04-10T04:24:04.837Z,99.90
2023-04-10T04:26:31.002Z,99.90
2023-04-10T04:28:57.141Z,99.90
2023-04-10T04:31:24.409Z,99.90
2023-04-10T04:33:50.757Z,99.90
2023-04-10T04:36:16.979Z,99.90
2023-04-10T04:38:43.208Z,99.90
2023-04-10T04:41:09.375Z,99.90
2023-04-10T04:43:35.573Z,99.90
2023-04-10T04:46:02.010Z,99.90
2023-04-10T04:48:28.392Z,99.90
2023-04-10T04:50:54.563Z,99.90
2023-04-10T04:53:20.859Z,99.90
2023-04-10T04:55:47.105Z,99.90
2023-04-10T04:58:13.677Z,99.90
2023-04-10T05:00:39.933Z,99.90
2023-04-10T05:03:07.001Z,99.90
2023-04-10T05:05:33.540Z,99.90
2023-04-10T05:08:00.620Z,99.90
2023-04-10T05:10:26.838Z,99.90
2023-04-10T05:12:52.952Z,99.90
2023-04-10T05:15:19.696Z,99.90
2023-04-10T05:17:46.446Z,99.90
2023-04-10T05:20:12.907Z,99.90
2023-04-10T05:22:39.112Z,99.90
2023-04-10T05:25:06.324Z,99.90
2023-04-10T05:27:32.488Z,99.90
2023-04-10T05:29:59.443Z,99.90
2023-04-10T05:32:25.670Z,99.90
2023-04-10T05:34:52.143Z,99.90
2023-04-10T05:37:18.279Z,99.90
2023-04-10T05:39:44.773Z,99.90
2023-04-10T05:42:11.128Z,99.90
2023-04-10T05:44:37.370Z,99.90
2023-04-10T05:47:03.547Z,99.90
2023-04-10T05:49:29.721Z,99.90
2023-04-10T05:51:56.034Z,99.90
2023-04-10T05:54:22.324Z,99.90
2023-04-10T05:56:48.705Z,99.90
2023-04-10T05:59:14.866Z,99.90
2023-04-10T06:01:41.568Z,99.90
2023-04-10T06:04:08.291Z,99.90
2023-04-10T06:06:35.245Z,99.90
2023-04-10T06:09:01.445Z,99.90
2023-04-10T06:11:27.860Z,99.90
2023-04-10T06:13:54.123Z,99.90
2023-04-10T06:16:20.950Z,99.90
2023-04-10T06:18:47.410Z,99.90
2023-04-10T06:21:13.922Z,99.90
2023-04-10T06:23:40.178Z,99.90
2023-04-10T06:26:06.448Z,99.90
2023-04-10T06:28:32.920Z,99.90
2023-04-10T06:31:02.872Z,99.90
2023-04-10T06:33:29.415Z,99.90
2023-04-10T06:35:56.724Z,99.90
2023-04-10T06:38:23.097Z,99.90
2023-04-10T06:40:49.650Z,99.90
2023-04-10T06:43:16.032Z,99.90
2023-04-10T06:45:43.222Z,99.90
2023-04-10T06:48:09.928Z,99.90
2023-04-10T06:50:36.490Z,99.90
2023-04-10T06:53:03.430Z,99.90
2023-04-10T06:55:30.103Z,99.90
2023-04-10T06:57:56.508Z,99.90
2023-04-10T07:00:23.350Z,99.90
2023-04-10T07:02:50.407Z,99.90
2023-04-10T07:05:17.081Z,99.90
2023-04-10T07:07:43.467Z,99.90
2023-04-10T07:10:10.508Z,99.90
2023-04-10T07:12:37.312Z,99.90
2023-04-10T07:15:04.147Z,99.90
2023-04-10T07:17:30.933Z,99.90
2023-04-10T07:19:58.189Z,99.90
2023-04-10T07:22:24.347Z,99.90
2023-04-10T07:24:50.711Z,99.90
2023-04-10T07:27:16.837Z,99.90
2023-04-10T07:29:43.265Z,99.90
2023-04-10T07:32:09.515Z,99.90
2023-04-10T07:34:37.585Z,99.90
2023-04-10T07:37:03.990Z,99.90
2023-04-10T07:39:31.418Z,99.90
2023-04-10T07:41:58.802Z,99.90
2023-04-10T07:44:26.922Z,99.90
2023-04-10T07:46:53.405Z,99.90
2023-04-10T07:49:19.741Z,99.90
2023-04-10T07:51:46.582Z,99.90
2023-04-10T07:54:12.828Z,99.90
2023-04-10T07:56:39.241Z,99.90
2023-04-10T07:59:05.666Z,99.90
2023-04-10T08:01:33.151Z,99.90
2023-04-10T08:04:02.865Z,99.90
2023-04-10T08:06:31.543Z,99.90
2023-04-10T08:08:57.787Z,99.90
2023-04-10T08:11:35.949Z,99.90
2023-04-10T08:14:04.841Z,99.90
2023-04-10T08:16:32.513Z,99.90
2023-04-10T08:18:58.958Z,99.90
2023-04-10T08:21:26.674Z,99.90
2023-04-10T08:23:57.852Z,99.90
2023-04-10T08:26:24.962Z,99.90
2023-04-10T08:28:52.380Z,99.90
2023-04-10T08:31:19.889Z,99.90
2023-04-10T08:33:46.213Z,99.90
2023-04-10T08:36:12.863Z,99.90
2023-04-10T08:38:39.522Z,99.90
2023-04-10T08:41:06.754Z,99.90
2023-04-10T08:43:33.982Z,99.90
2023-04-10T08:46:01.008Z,99.90
2023-04-10T08:48:38.050Z,99.90
2023-04-10T08:51:06.021Z,99.90
2023-04-10T08:53:32.331Z,99.90
2023-04-10T08:55:58.861Z,99.90
2023-04-10T08:58:25.622Z,99.90
2023-04-10T09:00:52.634Z,99.90
2023-04-10T09:03:19.006Z,99.90
2023-04-10T09:05:45.638Z,99.90
2023-04-10T09:08:14.078Z,99.90
2023-04-10T09:10:40.880Z,99.90
2023-04-10T09:13:07.588Z,99.90
2023-04-10T09:15:56.802Z,99.70
2023-04-10T09:18:43.846Z,99.90
2023-04-10T09:21:11.538Z,98.10
2023-04-10T09:23:37.742Z,99.00
2023-04-10T09:26:27.530Z,96.70
2023-04-10T09:29:12.196Z,95.00
2023-04-10T09:31:38.753Z,95.20
2023-04-10T09:34:10.585Z,94.80
2023-04-10T09:36:37.633Z,95.50
2023-04-10T09:39:05.225Z,95.90
2023-04-10T09:41:31.518Z,96.90
2023-04-10T09:44:11.471Z,97.40
2023-04-10T09:46:37.832Z,96.40
2023-04-10T09:49:04.514Z,96.00
2023-04-10T09:51:31.508Z,97.20
2023-04-10T09:53:58.068Z,97.40
2023-04-10T09:56:26.229Z,96.70
2023-04-10T09:58:53.246Z,96.20
2023-04-10T10:01:20.319Z,93.00
2023-04-10T10:03:46.514Z,92.60
2023-04-10T10:06:12.763Z,93.70
2023-04-10T10:08:39.026Z,91.70
2023-04-10T10:11:08.270Z,92.30
2023-04-10T10:13:37.796Z,91.40
2023-04-10T10:16:18.420Z,91.50
2023-04-10T10:21:22.971Z,90.70
2023-04-10T10:23:53.779Z,87.70
2023-04-10T10:26:21.167Z,85.70
2023-04-10T10:28:47.607Z,83.30
2023-04-10T10:31:14.042Z,87.10
2023-04-10T10:33:40.572Z,83.70
2023-04-10T10:36:07.669Z,86.50
2023-04-10T10:38:34.980Z,86.00
2023-04-10T10:41:10.591Z,84.70
2023-04-10T10:43:52.172Z,83.70
2023-04-10T10:46:51.398Z,84.60
2023-04-10T10:49:17.787Z,83.20
2023-04-10T10:51:47.326Z,83.30
2023-04-10T10:54:35.085Z,84.20
2023-04-10T10:57:02.588Z,78.70
2023-04-10T11:03:34.643Z,78.30
2023-04-10T11:06:06.968Z,89.50
2023-04-10T11:08:46.648Z,90.10
2023-04-10T11:11:21.682Z,90.70
2023-04-10T11:14:30.181Z,92.00
2023-04-10T11:16:56.746Z,91.20
2023-04-10T11:19:25.570Z,87.80
2023-04-10T11:22:06.005Z,89.10
2023-04-10T11:24:55.737Z,91.90
2023-04-10T11:27:45.314Z,86.50
2023-04-10T11:30:31.756Z,87.70
2023-04-10T11:32:59.662Z,86.00
2023-04-10T11:35:27.304Z,87.40
2023-04-10T11:38:11.813Z,85.50
2023-04-10T11:40:54.218Z,90.00
2023-04-10T11:43:20.374Z,89.30
2023-04-10T11:45:46.564Z,87.90
2023-04-10T11:48:14.295Z,86.40
2023-04-10T11:50:40.598Z,88.40
2023-04-10T11:53:19.315Z,87.30
2023-04-10T11:55:46.295Z,87.10
2023-04-10T11:58:26.369Z,89.10
2023-04-10T12:01:05.274Z,90.60
2023-04-10T12:03:36.263Z,88.10
2023-04-10T12:06:07.984Z,88.70
2023-04-10T12:08:35.463Z,85.30
2023-04-10T12:11:02.467Z,83.30
2023-04-10T12:13:30.078Z,88.30
2023-04-10T12:16:03.722Z,84.40
2023-04-10T12:18:30.502Z,82.20
2023-04-10T12:20:58.426Z,85.70
2023-04-10T12:23:25.696Z,86.10
2023-04-10T12:25:52.806Z,84.40
2023-04-10T12:28:22.359Z,84.30
2023-04-10T12:30:52.048Z,83.60
2023-04-10T12:33:22.818Z,85.90
2023-04-10T12:35:49.050Z,86.20
2023-04-10T12:38:15.897Z,86.60
2023-04-10T12:40:58.009Z,88.40
2023-04-10T12:43:35.974Z,89.90
2023-04-10T12:46:02.979Z,90.40
2023-04-10T12:48:29.246Z,89.90
2023-04-10T12:50:55.912Z,89.10
2023-04-10T12:53:22.313Z,87.40
2023-04-10T12:56:01.845Z,87.60
2023-04-10T12:58:30.428Z,86.40
2023-04-10T13:01:03.042Z,84.50
2023-04-10T13:03:30.208Z,79.80
2023-04-10T13:05:56.554Z,81.40
2023-04-10T13:08:23.155Z,80.80
2023-04-10T13:10:49.817Z,83.10
2023-04-10T13:13:16.291Z,82.80
2023-04-10T13:15:42.434Z,81.30
2023-04-10T13:18:10.469Z,80.60
2023-04-10T13:20:38.155Z,80.50
2023-04-10T13:23:05.188Z,82.20
2023-04-10T13:25:33.001Z,77.20
2023-04-10T13:28:00.411Z,78.00
2023-04-10T13:30:27.299Z,79.30
2023-04-10T13:32:53.587Z,79.10
2023-04-10T13:35:19.936Z,79.50
2023-04-10T13:37:46.791Z,78.20
2023-04-10T13:40:13.734Z,83.30
2023-04-10T13:42:41.921Z,81.00
2023-04-10T13:45:10.037Z,81.30
2023-04-10T13:47:37.664Z,77.90
2023-04-10T13:50:04.396Z,77.20
2023-04-10T13:52:30.598Z,81.40
2023-04-10T13:54:57.200Z,76.80
2023-04-10T13:57:23.377Z,81.90
2023-04-10T13:59:50.059Z,79.10
2023-04-10T14:02:16.781Z,78.90
2023-04-10T14:04:45.616Z,81.00
2023-04-10T14:07:12.443Z,81.80
2023-04-10T14:09:39.195Z,79.80
2023-04-10T14:12:05.334Z,80.30
2023-04-10T14:14:31.541Z,82.40
2023-04-10T14:16:58.719Z,79.80
2023-04-10T14:19:24.968Z,80.60
2023-04-10T14:21:51.238Z,77.30
2023-04-10T14:24:17.612Z,79.80
2023-04-10T14:26:43.966Z,79.40
2023-04-10T14:29:10.162Z,77.90
2023-04-10T14:31:44.162Z,78.40
2023-04-10T14:34:21.493Z,80.60
2023-04-10T14:36:48.432Z,76.50
2023-04-10T14:39:15.298Z,74.70
2023-04-10T14:41:44.823Z,76.20
2023-04-10T14:44:11.056Z,80.50
2023-04-10T14:46:37.268Z,80.00
2023-04-10T14:49:03.631Z,79.20
2023-04-10T14:51:30.090Z,78.90
2023-04-10T14:53:57.509Z,78.60
2023-04-10T14:56:23.876Z,78.60
2023-04-10T14:58:50.180Z,77.40
2023-04-10T15:01:16.890Z,79.70
2023-04-10T15:03:47.908Z,79.90
2023-04-10T15:06:14.998Z,78.00
2023-04-10T15:08:41.322Z,79.50
2023-04-10T15:11:08.053Z,80.30
2023-04-10T15:13:35.699Z,79.10
2023-04-10T15:16:01.905Z,80.40
2023-04-10T15:18:28.586Z,81.90
2023-04-10T15:20:55.416Z,80.10
2023-04-10T15:23:21.762Z,80.90
2023-04-10T15:25:47.949Z,82.20
2023-04-10T15:28:14.312Z,79.80
2023-04-10T15:30:42.866Z,80.40
2023-04-10T15:33:09.272Z,79.20
2023-04-10T15:35:36.177Z,79.50
2023-04-10T15:38:05.163Z,83.20
2023-04-10T15:40:32.226Z,81.30
2023-04-10T15:43:00.769Z,81.20
2023-04-10T15:45:27.123Z,82.20
2023-04-10T15:47:53.774Z,83.50
2023-04-10T15:50:20.181Z,84.80
2023-04-10T15:52:46.416Z,84.70
2023-04-10T15:55:13.337Z,86.60
2023-04-10T15:57:39.737Z,85.30
2023-04-10T16:00:07.497Z,85.80
2023-04-10T16:02:34.573Z,85.70
2023-04-10T16:05:01.179Z,84.00
2023-04-10T16:07:27.525Z,83.60
2023-04-10T16:09:54.602Z,87.20
2023-04-10T16:12:21.892Z,85.80
2023-04-10T16:14:48.397Z,85.50
2023-04-10T16:17:15.124Z,83.40
2023-04-10T16:19:41.679Z,84.60
2023-04-10T16:22:07.884Z,87.20
2023-04-10T16:24:35.376Z,85.80
2023-04-10T16:27:02.649Z,85.80
2023-04-10T16:29:28.873Z,86.20
2023-04-10T16:31:55.691Z,87.30
2023-04-10T16:34:22.252Z,87.90
2023-04-10T16:36:48.423Z,87.10
2023-04-10T16:39:14.768Z,88.20
2023-04-10T16:41:41.711Z,89.70
2023-04-10T16:44:07.968Z,90.40
2023-04-10T16:46:34.165Z,90.60
2023-04-10T16:49:00.915Z,91.60
2023-04-10T16:51:27.481Z,90.70
2023-04-10T16:53:54.138Z,91.00
2023-04-10T16:56:20.730Z,91.00
2023-04-10T16:58:46.925Z,91.50
2023-04-10T17:01:26.028Z,91.60
2023-04-10T17:03:53.240Z,91.90
2023-04-10T17:06:19.704Z,92.30
2023-04-10T17:08:46.088Z,92.60
2023-04-10T17:11:12.365Z,93.00
2023-04-10T17:13:41.869Z,93.40
2023-04-10T17:16:08.485Z,93.80
2023-04-10T17:18:35.304Z,94.50
2023-04-10T17:21:01.511Z,94.90
2023-04-10T17:23:28.127Z,95.50
2023-04-10T17:25:54.452Z,96.00
2023-04-10T17:28:20.835Z,96.80
2023-04-10T17:30:48.124Z,97.50
2023-04-10T17:33:14.357Z,99.00
2023-04-10T17:35:41.124Z,99.60
2023-04-10T17:38:07.385Z,99.90
2023-04-10T17:40:33.809Z,99.90
2023-04-10T17:43:00.032Z,99.90
2023-04-10T17:45:27.499Z,99.90
2023-04-10T17:47:54.997Z,99.90
2023-04-10T17:50:21.611Z,99.90
2023-04-10T17:52:47.830Z,99.90
2023-04-10T17:55:20.425Z,99.90
2023-04-10T17:57:48.912Z,99.90
2023-04-10T18:00:20.033Z,99.90
2023-04-10T18:02:47.744Z,99.90
2023-04-10T18:05:14.087Z,99.90
2023-04-10T18:07:40.358Z,99.90
2023-04-10T18:10:08.976Z,99.90
2023-04-10T18:12:37.147Z,99.90
2023-04-10T18:15:04.500Z,99.90
2023-04-10T18:17:30.707Z,99.90
2023-04-10T18:19:57.073Z,99.90
2023-04-10T18:22:25.083Z,99.90
2023-04-10T18:24:51.348Z,99.90
2023-04-10T18:27:17.849Z,99.90
2023-04-10T18:29:44.828Z,99.90
2023-04-10T18:32:11.086Z,99.90
2023-04-10T18:34:37.286Z,99.90
2023-04-10T18:37:03.859Z,99.90
2023-04-10T18:39:30.294Z,99.90
2023-04-10T18:41:57.885Z,99.90
2023-04-10T18:44:24.388Z,99.90
2023-04-10T18:47:01.339Z,99.90
2023-04-10T18:49:31.559Z,99.90
2023-04-10T18:51:58.549Z,99.90
2023-04-10T18:54:30.036Z,99.90
2023-04-10T18:56:56.731Z,99.90
2023-04-10T18:59:23.049Z,99.90
2023-04-10T19:01:49.436Z,99.90
2023-04-10T19:04:16.946Z,99.90
2023-04-10T19:06:45.952Z,99.90
2023-04-10T19:09:13.985Z,99.90
2023-04-10T19:11:41.054Z,99.90
2023-04-10T19:14:09.118Z,99.90
2023-04-10T19:16:36.185Z,99.90
2023-04-10T19:19:03.299Z,99.90
2023-04-10T19:21:30.946Z,99.90
2023-04-10T19:23:57.603Z,99.90
2023-04-10T19:26:24.376Z,99.90
2023-04-10T19:28:51.076Z,99.90
2023-04-10T19:31:17.444Z,99.90
2023-04-10T19:33:44.080Z,99.90
2023-04-10T19:36:11.015Z,99.90
2023-04-10T19:38:38.772Z,99.90
2023-04-10T19:41:13.557Z,99.90
2023-04-10T19:43:40.094Z,99.90
2023-04-10T19:46:06.696Z,99.90
2023-04-10T19:48:33.641Z,99.90
2023-04-10T19:51:04.847Z,99.90
2023-04-10T19:53:31.318Z,99.90
2023-04-10T19:55:58.501Z,99.90
2023-04-10T19:58:39.456Z,99.90
2023-04-10T20:01:10.345Z,99.90
2023-04-10T20:03:38.191Z,99.90
2023-04-10T20:06:06.688Z,99.90
2023-04-10T20:08:33.490Z,99.90
2023-04-10T20:11:00.012Z,99.90
2023-04-10T20:13:27.196Z,99.90
2023-04-10T20:15:53.493Z,99.90
2023-04-10T20:18:20.587Z,99.90
2023-04-10T20:20:47.102Z,99.90
2023-04-10T20:23:14.302Z,99.90
2023-04-10T20:25:40.835Z,99.90
2023-04-10T20:28:07.184Z,99.90
2023-04-10T20:30:38.905Z,99.90
2023-04-10T20:33:05.614Z,99.90
2023-04-10T20:35:32.506Z,99.90
2023-04-10T20:37:59.177Z,99.90
2023-04-10T20:40:26.336Z,99.90
2023-04-10T20:42:53.599Z,99.90
2023-04-10T20:45:20.756Z,99.90
2023-04-10T20:47:47.995Z,99.90
2023-04-10T20:50:15.839Z,99.90
2023-04-10T20:52:42.431Z,99.90
2023-04-10T20:55:09.931Z,99.90
2023-04-10T20:57:36.143Z,99.90
2023-04-10T21:00:04.002Z,99.90
2023-04-10T21:02:31.681Z,99.90
2023-04-10T21:04:59.370Z,99.90
2023-04-10T21:07:25.766Z,99.90
2023-04-10T21:09:52.260Z,99.90
2023-04-10T21:12:18.509Z,99.90
2023-04-10T21:14:45.228Z,99.90
2023-04-10T21:17:11.972Z,99.90
2023-04-10T21:19:38.528Z,99.90
2023-04-10T21:22:10.080Z,99.90
2023-04-10T21:24:37.749Z,99.90
2023-04-10T21:27:03.996Z,99.90
2023-04-10T21:29:30.337Z,99.90
2023-04-10T21:31:58.074Z,99.90
2023-04-10T21:34:25.387Z,99.90
2023-04-10T21:36:52.622Z,99.90
2023-04-10T21:39:18.993Z,99.90
2023-04-10T21:41:45.174Z,99.90
2023-04-10T21:44:11.359Z,99.90
2023-04-10T21:46:37.651Z,99.90
2023-04-10T21:49:04.699Z,99.90
2023-04-10T21:51:31.097Z,99.90
2023-04-10T21:53:57.458Z,99.90
2023-04-10T21:56:23.690Z,99.90
2023-04-10T21:58:49.989Z,99.90
2023-04-10T22:01:16.267Z,99.90
2023-04-10T22:03:42.993Z,99.90
2023-04-10T22:06:09.870Z,99.90
2023-04-10T22:08:37.791Z,99.90
2023-04-10T22:11:05.448Z,99.90
2023-04-10T22:13:31.973Z,99.90
2023-04-10T22:15:59.675Z,99.90
2023-04-10T22:18:26.407Z,99.90
2023-04-10T22:20:53.800Z,99.90
2023-04-10T22:23:20.025Z,99.90
2023-04-10T22:25:46.246Z,99.90
2023-04-10T22:28:12.578Z,99.90
2023-04-10T22:30:39.000Z,99.90
2023-04-10T22:33:06.027Z,99.90
2023-04-10T22:35:32.796Z,99.90
2023-04-10T22:37:59.864Z,99.90
2023-04-10T22:40:26.333Z,99.90
2023-04-10T22:42:52.448Z,99.90
2023-04-10T22:45:19.910Z,99.90
2023-04-10T22:47:46.083Z,99.90
2023-04-10T22:50:12.294Z,99.90
2023-04-10T22:52:38.946Z,99.90
2023-04-10T22:55:06.331Z,99.90
2023-04-10T22:57:33.320Z,99.90
2023-04-10T23:00:00.595Z,99.90
2023-04-10T23:02:27.359Z,99.90
2023-04-10T23:04:53.873Z,99.90
2023-04-10T23:07:20.322Z,99.90
2023-04-10T23:09:46.859Z,99.90
2023-04-10T23:12:13.013Z,99.90
2023-04-10T23:14:39.343Z,99.90
2023-04-10T23:17:05.792Z,99.90
2023-04-10T23:19:32.720Z,99.90
2023-04-10T23:21:59.422Z,99.90
2023-04-10T23:24:25.622Z,99.90
2023-04-10T23:26:51.815Z,99.90
2023-04-10T23:29:18.024Z,99.90
2023-04-10T23:31:44.246Z,99.90
2023-04-10T23:34:10.615Z,99.90
2023-04-10T23:36:36.796Z,99.90
2023-04-10T23:39:03.024Z,99.90
2023-04-10T23:41:29.179Z,99.90
2023-04-10T23:43:55.555Z,99.90
2023-04-10T23:46:21.831Z,99.90
2023-04-10T23:48:48.009Z,99.90
2023-04-10T23:51:14.161Z,99.90
2023-04-10T23:53:40.526Z,99.90
2023-04-10T23:56:10.004Z,99.90
2023-04-10T23:58:36.138Z,99.90
